sensor_id;sensor_type;location;lat;lon;timestamp;P1;durP1;ratioP1;P2;durP2;ratioP2
50547;SDS011;38013;48.810;8.818;2023-03-03T00:00:55;30.13;;;15.63;;
50547;SDS011;38013;48.810;8.818;2023-03-03T00:03:23;29.33;;;15.80;;
50547;SDS011;38013;48.810;8.818;2023-03-03T00:05:52;29.42;;;15.00;;
50547;SDS011;38013;48.810;8.818;2023-03-03T00:08:20;25.08;;;14.48;;
50547;SDS011;38013;48.810;8.818;2023-03-03T00:10:48;26.20;;;15.70;;
50547;SDS011;38013;48.810;8.818;2023-03-03T00:13:19;32.95;;;16.38;;
50547;SDS011;38013;48.810;8.818;2023-03-03T00:15:49;26.92;;;15.52;;
50547;SDS011;38013;48.810;8.818;2023-03-03T00:18:19;38.42;;;18.00;;
50547;SDS011;38013;48.810;8.818;2023-03-03T00:20:57;35.63;;;18.05;;
50547;SDS011;38013;48.810;8.818;2023-03-03T00:23:30;33.85;;;18.02;;
50547;SDS011;38013;48.810;8.818;2023-03-03T00:26:03;38.78;;;18.67;;
50547;SDS011;38013;48.810;8.818;2023-03-03T00:28:45;36.58;;;20.08;;
50547;SDS011;38013;48.810;8.818;2023-03-03T00:31:32;32.42;;;16.95;;
50547;SDS011;38013;48.810;8.818;2023-03-03T00:36:45;28.40;;;16.38;;
50547;SDS011;38013;48.810;8.818;2023-03-03T00:39:23;32.42;;;18.35;;
50547;SDS011;38013;48.810;8.818;2023-03-03T00:42:04;35.05;;;18.65;;
50547;SDS011;38013;48.810;8.818;2023-03-03T00:44:44;33.80;;;17.73;;
50547;SDS011;38013;48.810;8.818;2023-03-03T00:47:26;31.75;;;16.50;;
50547;SDS011;38013;48.810;8.818;2023-03-03T00:52:38;32.45;;;18.15;;
50547;SDS011;38013;48.810;8.818;2023-03-03T00:55:10;31.27;;;18.30;;
50547;SDS011;38013;48.810;8.818;2023-03-03T00:57:37;37.78;;;19.02;;
50547;SDS011;38013;48.810;8.818;2023-03-03T01:00:07;32.25;;;17.83;;
50547;SDS011;38013;48.810;8.818;2023-03-03T01:02:35;32.85;;;19.50;;
50547;SDS011;38013;48.810;8.818;2023-03-03T01:05:02;32.97;;;17.98;;
50547;SDS011;38013;48.810;8.818;2023-03-03T01:07:30;34.90;;;19.42;;
50547;SDS011;38013;48.810;8.818;2023-03-03T01:09:57;35.72;;;17.55;;
50547;SDS011;38013;48.810;8.818;2023-03-03T01:12:25;28.25;;;14.90;;
50547;SDS011;38013;48.810;8.818;2023-03-03T01:14:52;27.05;;;16.98;;
50547;SDS011;38013;48.810;8.818;2023-03-03T01:17:20;30.88;;;16.50;;
50547;SDS011;38013;48.810;8.818;2023-03-03T01:19:47;27.85;;;15.50;;
50547;SDS011;38013;48.810;8.818;2023-03-03T01:22:14;26.08;;;14.57;;
50547;SDS011;38013;48.810;8.818;2023-03-03T01:24:41;29.25;;;15.25;;
50547;SDS011;38013;48.810;8.818;2023-03-03T01:27:09;27.73;;;15.15;;
50547;SDS011;38013;48.810;8.818;2023-03-03T01:29:36;24.15;;;14.30;;
50547;SDS011;38013;48.810;8.818;2023-03-03T01:32:03;27.27;;;14.55;;
50547;SDS011;38013;48.810;8.818;2023-03-03T01:34:30;30.02;;;15.35;;
50547;SDS011;38013;48.810;8.818;2023-03-03T01:36:57;25.50;;;14.52;;
50547;SDS011;38013;48.810;8.818;2023-03-03T01:39:26;30.88;;;17.15;;
50547;SDS011;38013;48.810;8.818;2023-03-03T01:41:53;27.95;;;16.13;;
50547;SDS011;38013;48.810;8.818;2023-03-03T01:44:19;32.78;;;16.83;;
50547;SDS011;38013;48.810;8.818;2023-03-03T01:46:50;30.88;;;17.08;;
50547;SDS011;38013;48.810;8.818;2023-03-03T01:49:36;29.88;;;16.27;;
50547;SDS011;38013;48.810;8.818;2023-03-03T01:52:13;27.73;;;15.90;;
50547;SDS011;38013;48.810;8.818;2023-03-03T01:55:03;30.95;;;17.33;;
50547;SDS011;38013;48.810;8.818;2023-03-03T01:57:43;33.13;;;17.55;;
50547;SDS011;38013;48.810;8.818;2023-03-03T02:00:15;30.02;;;17.15;;
50547;SDS011;38013;48.810;8.818;2023-03-03T02:02:42;28.88;;;16.50;;
50547;SDS011;38013;48.810;8.818;2023-03-03T02:05:10;28.83;;;16.20;;
50547;SDS011;38013;48.810;8.818;2023-03-03T02:07:38;27.38;;;15.25;;
50547;SDS011;38013;48.810;8.818;2023-03-03T02:10:07;29.00;;;16.63;;
50547;SDS011;38013;48.810;8.818;2023-03-03T02:12:40;27.60;;;14.95;;
50547;SDS011;38013;48.810;8.818;2023-03-03T02:18:04;28.23;;;16.08;;
50547;SDS011;38013;48.810;8.818;2023-03-03T02:20:54;28.88;;;16.27;;
50547;SDS011;38013;48.810;8.818;2023-03-03T02:26:43;25.35;;;14.15;;
50547;SDS011;38013;48.810;8.818;2023-03-03T02:29:11;24.95;;;15.07;;
50547;SDS011;38013;48.810;8.818;2023-03-03T02:31:39;30.27;;;15.57;;
50547;SDS011;38013;48.810;8.818;2023-03-03T02:34:06;27.23;;;14.68;;
50547;SDS011;38013;48.810;8.818;2023-03-03T02:36:35;26.67;;;15.23;;
50547;SDS011;38013;48.810;8.818;2023-03-03T02:44:53;27.80;;;15.55;;
50547;SDS011;38013;48.810;8.818;2023-03-03T02:47:20;29.45;;;16.50;;
50547;SDS011;38013;48.810;8.818;2023-03-03T02:49:47;28.35;;;15.50;;
50547;SDS011;38013;48.810;8.818;2023-03-03T02:52:13;32.95;;;16.88;;
50547;SDS011;38013;48.810;8.818;2023-03-03T02:54:45;32.55;;;18.10;;
50547;SDS011;38013;48.810;8.818;2023-03-03T02:57:12;30.25;;;17.23;;
50547;SDS011;38013;48.810;8.818;2023-03-03T02:59:39;34.17;;;18.77;;
50547;SDS011;38013;48.810;8.818;2023-03-03T03:02:10;30.85;;;16.90;;
50547;SDS011;38013;48.810;8.818;2023-03-03T03:04:37;31.58;;;18.42;;
50547;SDS011;38013;48.810;8.818;2023-03-03T03:07:04;31.42;;;17.80;;
50547;SDS011;38013;48.810;8.818;2023-03-03T03:12:01;31.38;;;18.10;;
50547;SDS011;38013;48.810;8.818;2023-03-03T03:14:31;31.73;;;16.88;;
50547;SDS011;38013;48.810;8.818;2023-03-03T03:16:58;28.23;;;16.70;;
50547;SDS011;38013;48.810;8.818;2023-03-03T03:19:26;31.50;;;17.27;;
50547;SDS011;38013;48.810;8.818;2023-03-03T03:21:54;32.90;;;17.98;;
50547;SDS011;38013;48.810;8.818;2023-03-03T03:24:21;33.17;;;17.55;;
50547;SDS011;38013;48.810;8.818;2023-03-03T03:26:54;30.65;;;16.65;;
50547;SDS011;38013;48.810;8.818;2023-03-03T03:29:22;32.22;;;17.98;;
50547;SDS011;38013;48.810;8.818;2023-03-03T03:31:49;30.73;;;17.15;;
50547;SDS011;38013;48.810;8.818;2023-03-03T03:34:16;29.98;;;15.52;;
50547;SDS011;38013;48.810;8.818;2023-03-03T03:36:43;30.45;;;16.38;;
50547;SDS011;38013;48.810;8.818;2023-03-03T03:39:13;33.45;;;17.95;;
50547;SDS011;38013;48.810;8.818;2023-03-03T03:41:44;30.60;;;17.52;;
50547;SDS011;38013;48.810;8.818;2023-03-03T03:44:10;26.70;;;15.05;;
50547;SDS011;38013;48.810;8.818;2023-03-03T03:46:37;32.67;;;17.67;;
50547;SDS011;38013;48.810;8.818;2023-03-03T03:49:05;32.15;;;18.38;;
50547;SDS011;38013;48.810;8.818;2023-03-03T03:51:32;31.70;;;15.43;;
50547;SDS011;38013;48.810;8.818;2023-03-03T03:54:00;32.83;;;17.42;;
50547;SDS011;38013;48.810;8.818;2023-03-03T03:56:27;30.10;;;17.30;;
50547;SDS011;38013;48.810;8.818;2023-03-03T03:58:57;33.63;;;18.38;;
50547;SDS011;38013;48.810;8.818;2023-03-03T04:01:25;31.65;;;15.57;;
50547;SDS011;38013;48.810;8.818;2023-03-03T04:03:53;29.00;;;14.80;;
50547;SDS011;38013;48.810;8.818;2023-03-03T04:06:22;27.55;;;15.93;;
50547;SDS011;38013;48.810;8.818;2023-03-03T04:08:50;30.65;;;17.13;;
50547;SDS011;38013;48.810;8.818;2023-03-03T04:11:19;28.83;;;15.75;;
50547;SDS011;38013;48.810;8.818;2023-03-03T04:13:46;27.33;;;14.15;;
50547;SDS011;38013;48.810;8.818;2023-03-03T04:16:13;27.55;;;15.75;;
50547;SDS011;38013;48.810;8.818;2023-03-03T04:18:41;34.28;;;16.50;;
50547;SDS011;38013;48.810;8.818;2023-03-03T04:21:13;37.03;;;19.38;;
50547;SDS011;38013;48.810;8.818;2023-03-03T04:23:42;29.08;;;16.45;;
50547;SDS011;38013;48.810;8.818;2023-03-03T04:26:09;27.52;;;15.77;;
50547;SDS011;38013;48.810;8.818;2023-03-03T04:28:37;29.55;;;17.30;;
50547;SDS011;38013;48.810;8.818;2023-03-03T04:31:04;29.25;;;16.70;;
50547;SDS011;38013;48.810;8.818;2023-03-03T04:33:31;29.33;;;16.48;;
50547;SDS011;38013;48.810;8.818;2023-03-03T04:35:59;29.92;;;17.77;;
50547;SDS011;38013;48.810;8.818;2023-03-03T04:38:27;32.22;;;16.80;;
50547;SDS011;38013;48.810;8.818;2023-03-03T04:40:55;32.83;;;18.55;;
50547;SDS011;38013;48.810;8.818;2023-03-03T04:43:24;29.77;;;16.85;;
50547;SDS011;38013;48.810;8.818;2023-03-03T04:45:52;29.42;;;16.08;;
50547;SDS011;38013;48.810;8.818;2023-03-03T04:48:20;28.05;;;16.73;;
50547;SDS011;38013;48.810;8.818;2023-03-03T04:50:47;28.27;;;15.95;;
50547;SDS011;38013;48.810;8.818;2023-03-03T04:53:14;27.85;;;15.50;;
50547;SDS011;38013;48.810;8.818;2023-03-03T04:55:41;32.35;;;17.52;;
50547;SDS011;38013;48.810;8.818;2023-03-03T04:58:08;33.33;;;17.33;;
50547;SDS011;38013;48.810;8.818;2023-03-03T05:00:36;34.17;;;18.70;;
50547;SDS011;38013;48.810;8.818;2023-03-03T05:03:05;32.25;;;18.45;;
50547;SDS011;38013;48.810;8.818;2023-03-03T05:05:33;29.90;;;16.83;;
50547;SDS011;38013;48.810;8.818;2023-03-03T05:08:00;30.98;;;18.35;;
50547;SDS011;38013;48.810;8.818;2023-03-03T05:10:27;32.85;;;17.52;;
50547;SDS011;38013;48.810;8.818;2023-03-03T05:12:54;29.52;;;17.58;;
50547;SDS011;38013;48.810;8.818;2023-03-03T05:15:21;35.75;;;16.95;;
50547;SDS011;38013;48.810;8.818;2023-03-03T05:17:48;26.77;;;15.23;;
50547;SDS011;38013;48.810;8.818;2023-03-03T05:20:18;25.05;;;15.35;;
50547;SDS011;38013;48.810;8.818;2023-03-03T05:22:45;25.13;;;13.77;;
50547;SDS011;38013;48.810;8.818;2023-03-03T05:25:12;30.02;;;16.65;;
50547;SDS011;38013;48.810;8.818;2023-03-03T05:27:39;28.52;;;16.88;;
50547;SDS011;38013;48.810;8.818;2023-03-03T05:30:06;28.17;;;16.98;;
50547;SDS011;38013;48.810;8.818;2023-03-03T05:32:34;28.90;;;16.33;;
50547;SDS011;38013;48.810;8.818;2023-03-03T05:35:01;30.30;;;16.90;;
50547;SDS011;38013;48.810;8.818;2023-03-03T05:37:29;26.88;;;15.68;;
50547;SDS011;38013;48.810;8.818;2023-03-03T05:39:56;28.30;;;15.95;;
50547;SDS011;38013;48.810;8.818;2023-03-03T05:42:23;30.50;;;17.67;;
50547;SDS011;38013;48.810;8.818;2023-03-03T05:44:50;30.35;;;17.38;;
50547;SDS011;38013;48.810;8.818;2023-03-03T05:47:17;31.30;;;18.52;;
50547;SDS011;38013;48.810;8.818;2023-03-03T05:49:43;34.45;;;17.77;;
50547;SDS011;38013;48.810;8.818;2023-03-03T05:52:10;33.90;;;18.30;;
50547;SDS011;38013;48.810;8.818;2023-03-03T05:54:37;32.80;;;18.20;;
50547;SDS011;38013;48.810;8.818;2023-03-03T05:57:04;33.92;;;18.90;;
50547;SDS011;38013;48.810;8.818;2023-03-03T05:59:31;39.95;;;19.33;;
50547;SDS011;38013;48.810;8.818;2023-03-03T06:01:57;35.58;;;19.38;;
50547;SDS011;38013;48.810;8.818;2023-03-03T06:04:24;35.03;;;20.02;;
50547;SDS011;38013;48.810;8.818;2023-03-03T06:06:51;34.08;;;19.67;;
50547;SDS011;38013;48.810;8.818;2023-03-03T06:09:18;35.10;;;19.25;;
50547;SDS011;38013;48.810;8.818;2023-03-03T06:11:45;33.63;;;18.92;;
50547;SDS011;38013;48.810;8.818;2023-03-03T06:14:12;35.22;;;19.88;;
50547;SDS011;38013;48.810;8.818;2023-03-03T06:16:39;33.03;;;18.65;;
50547;SDS011;38013;48.810;8.818;2023-03-03T06:19:06;36.20;;;19.48;;
50547;SDS011;38013;48.810;8.818;2023-03-03T06:21:33;30.85;;;17.92;;
50547;SDS011;38013;48.810;8.818;2023-03-03T06:23:59;31.33;;;17.70;;
50547;SDS011;38013;48.810;8.818;2023-03-03T06:26:27;32.85;;;17.70;;
50547;SDS011;38013;48.810;8.818;2023-03-03T06:28:53;31.15;;;18.42;;
50547;SDS011;38013;48.810;8.818;2023-03-03T06:31:20;30.00;;;17.17;;
50547;SDS011;38013;48.810;8.818;2023-03-03T06:33:47;31.58;;;18.40;;
50547;SDS011;38013;48.810;8.818;2023-03-03T06:36:14;30.13;;;17.48;;
50547;SDS011;38013;48.810;8.818;2023-03-03T06:38:41;28.05;;;16.15;;
50547;SDS011;38013;48.810;8.818;2023-03-03T06:41:08;29.38;;;17.80;;
50547;SDS011;38013;48.810;8.818;2023-03-03T06:43:35;30.05;;;16.63;;
50547;SDS011;38013;48.810;8.818;2023-03-03T06:46:03;32.58;;;17.70;;
50547;SDS011;38013;48.810;8.818;2023-03-03T06:48:31;29.70;;;16.58;;
50547;SDS011;38013;48.810;8.818;2023-03-03T06:50:59;33.70;;;19.02;;
50547;SDS011;38013;48.810;8.818;2023-03-03T06:55:57;28.77;;;15.20;;
50547;SDS011;38013;48.810;8.818;2023-03-03T06:58:26;35.78;;;17.83;;
50547;SDS011;38013;48.810;8.818;2023-03-03T07:00:58;34.25;;;18.88;;
50547;SDS011;38013;48.810;8.818;2023-03-03T07:03:35;32.33;;;18.15;;
50547;SDS011;38013;48.810;8.818;2023-03-03T07:06:05;31.90;;;18.15;;
50547;SDS011;38013;48.810;8.818;2023-03-03T07:08:45;36.40;;;18.20;;
50547;SDS011;38013;48.810;8.818;2023-03-03T07:11:13;32.95;;;17.55;;
50547;SDS011;38013;48.810;8.818;2023-03-03T07:13:53;27.60;;;16.67;;
50547;SDS011;38013;48.810;8.818;2023-03-03T07:16:25;27.75;;;15.65;;
50547;SDS011;38013;48.810;8.818;2023-03-03T07:18:56;27.20;;;16.27;;
50547;SDS011;38013;48.810;8.818;2023-03-03T07:21:32;32.00;;;16.83;;
50547;SDS011;38013;48.810;8.818;2023-03-03T07:24:11;28.17;;;16.20;;
50547;SDS011;38013;48.810;8.818;2023-03-03T07:27:13;31.00;;;16.30;;
50547;SDS011;38013;48.810;8.818;2023-03-03T07:29:58;28.92;;;17.27;;
50547;SDS011;38013;48.810;8.818;2023-03-03T07:32:46;32.55;;;18.40;;
50547;SDS011;38013;48.810;8.818;2023-03-03T07:35:23;29.63;;;19.17;;
50547;SDS011;38013;48.810;8.818;2023-03-03T07:41:19;36.70;;;20.77;;
50547;SDS011;38013;48.810;8.818;2023-03-03T07:43:49;32.85;;;18.55;;
50547;SDS011;38013;48.810;8.818;2023-03-03T07:49:21;34.33;;;19.15;;
50547;SDS011;38013;48.810;8.818;2023-03-03T07:51:58;36.08;;;21.13;;
50547;SDS011;38013;48.810;8.818;2023-03-03T08:02:47;32.05;;;18.90;;
50547;SDS011;38013;48.810;8.818;2023-03-03T08:05:34;32.67;;;19.30;;
50547;SDS011;38013;48.810;8.818;2023-03-03T08:10:56;36.30;;;19.50;;
50547;SDS011;38013;48.810;8.818;2023-03-03T08:13:35;34.58;;;19.80;;
50547;SDS011;38013;48.810;8.818;2023-03-03T08:18:38;38.53;;;20.13;;
50547;SDS011;38013;48.810;8.818;2023-03-03T08:21:14;41.35;;;22.40;;
50547;SDS011;38013;48.810;8.818;2023-03-03T08:23:48;39.70;;;21.52;;
50547;SDS011;38013;48.810;8.818;2023-03-03T08:26:17;31.77;;;19.63;;
50547;SDS011;38013;48.810;8.818;2023-03-03T08:28:47;40.78;;;22.48;;
50547;SDS011;38013;48.810;8.818;2023-03-03T08:31:15;45.85;;;25.25;;
50547;SDS011;38013;48.810;8.818;2023-03-03T08:36:31;35.33;;;19.17;;
50547;SDS011;38013;48.810;8.818;2023-03-03T08:39:00;38.60;;;22.15;;
50547;SDS011;38013;48.810;8.818;2023-03-03T08:41:27;35.90;;;20.38;;
50547;SDS011;38013;48.810;8.818;2023-03-03T08:43:54;33.92;;;20.60;;
50547;SDS011;38013;48.810;8.818;2023-03-03T08:46:21;35.60;;;19.65;;
50547;SDS011;38013;48.810;8.818;2023-03-03T08:48:48;33.05;;;19.30;;
50547;SDS011;38013;48.810;8.818;2023-03-03T08:51:15;34.42;;;19.42;;
50547;SDS011;38013;48.810;8.818;2023-03-03T08:53:42;39.38;;;20.15;;
50547;SDS011;38013;48.810;8.818;2023-03-03T08:56:09;38.33;;;20.45;;
50547;SDS011;38013;48.810;8.818;2023-03-03T08:58:36;37.38;;;20.75;;
50547;SDS011;38013;48.810;8.818;2023-03-03T09:01:10;33.00;;;19.80;;
50547;SDS011;38013;48.810;8.818;2023-03-03T09:03:37;34.53;;;18.95;;
50547;SDS011;38013;48.810;8.818;2023-03-03T09:06:04;31.27;;;17.50;;
50547;SDS011;38013;48.810;8.818;2023-03-03T09:08:31;36.40;;;20.80;;
50547;SDS011;38013;48.810;8.818;2023-03-03T09:10:58;39.92;;;23.70;;
50547;SDS011;38013;48.810;8.818;2023-03-03T09:13:26;38.10;;;20.88;;
50547;SDS011;38013;48.810;8.818;2023-03-03T09:15:56;33.97;;;18.63;;
50547;SDS011;38013;48.810;8.818;2023-03-03T09:18:30;36.58;;;18.55;;
50547;SDS011;38013;48.810;8.818;2023-03-03T09:21:05;34.88;;;19.15;;
50547;SDS011;38013;48.810;8.818;2023-03-03T09:29:32;30.88;;;17.63;;
50547;SDS011;38013;48.810;8.818;2023-03-03T09:32:20;31.17;;;17.52;;
50547;SDS011;38013;48.810;8.818;2023-03-03T09:35:24;33.35;;;18.65;;
50547;SDS011;38013;48.810;8.818;2023-03-03T09:38:20;35.80;;;19.33;;
50547;SDS011;38013;48.810;8.818;2023-03-03T09:41:12;40.22;;;19.80;;
50547;SDS011;38013;48.810;8.818;2023-03-03T09:50:15;32.40;;;19.08;;
50547;SDS011;38013;48.810;8.818;2023-03-03T09:53:06;33.47;;;19.08;;
50547;SDS011;38013;48.810;8.818;2023-03-03T10:07:37;33.30;;;18.67;;
50547;SDS011;38013;48.810;8.818;2023-03-03T10:10:30;35.80;;;18.58;;
50547;SDS011;38013;48.810;8.818;2023-03-03T10:13:35;33.25;;;19.13;;
50547;SDS011;38013;48.810;8.818;2023-03-03T10:17:03;35.20;;;18.77;;
50547;SDS011;38013;48.810;8.818;2023-03-03T10:19:31;33.80;;;17.90;;
50547;SDS011;38013;48.810;8.818;2023-03-03T10:22:15;33.50;;;19.20;;
50547;SDS011;38013;48.810;8.818;2023-03-03T10:27:43;33.42;;;18.92;;
50547;SDS011;38013;48.810;8.818;2023-03-03T10:30:37;31.40;;;18.40;;
50547;SDS011;38013;48.810;8.818;2023-03-03T10:48:23;31.38;;;18.30;;
50547;SDS011;38013;48.810;8.818;2023-03-03T11:05:04;30.00;;;17.08;;
50547;SDS011;38013;48.810;8.818;2023-03-03T11:08:07;28.48;;;16.05;;
50547;SDS011;38013;48.810;8.818;2023-03-03T11:14:04;26.30;;;15.75;;
50547;SDS011;38013;48.810;8.818;2023-03-03T11:16:41;28.50;;;15.82;;
50547;SDS011;38013;48.810;8.818;2023-03-03T11:19:29;25.35;;;15.05;;
50547;SDS011;38013;48.810;8.818;2023-03-03T11:22:27;29.70;;;16.25;;
50547;SDS011;38013;48.810;8.818;2023-03-03T11:31:06;30.35;;;17.23;;
50547;SDS011;38013;48.810;8.818;2023-03-03T11:36:27;26.98;;;15.25;;
50547;SDS011;38013;48.810;8.818;2023-03-03T11:39:11;27.42;;;16.23;;
50547;SDS011;38013;48.810;8.818;2023-03-03T11:47:39;25.38;;;15.55;;
50547;SDS011;38013;48.810;8.818;2023-03-03T11:50:22;25.27;;;14.75;;
50547;SDS011;38013;48.810;8.818;2023-03-03T11:55:58;25.08;;;15.52;;
50547;SDS011;38013;48.810;8.818;2023-03-03T11:58:44;31.77;;;15.88;;
50547;SDS011;38013;48.810;8.818;2023-03-03T12:01:28;27.65;;;16.13;;
50547;SDS011;38013;48.810;8.818;2023-03-03T12:07:10;31.63;;;16.75;;
50547;SDS011;38013;48.810;8.818;2023-03-03T12:12:44;25.40;;;16.63;;
50547;SDS011;38013;48.810;8.818;2023-03-03T12:22:01;25.52;;;14.88;;
50547;SDS011;38013;48.810;8.818;2023-03-03T12:24:43;26.35;;;15.10;;
50547;SDS011;38013;48.810;8.818;2023-03-03T12:27:37;29.70;;;15.88;;
50547;SDS011;38013;48.810;8.818;2023-03-03T12:38:55;28.13;;;15.23;;
50547;SDS011;38013;48.810;8.818;2023-03-03T12:47:23;27.10;;;16.10;;
50547;SDS011;38013;48.810;8.818;2023-03-03T12:52:56;28.13;;;17.05;;
50547;SDS011;38013;48.810;8.818;2023-03-03T12:55:40;27.15;;;15.80;;
50547;SDS011;38013;48.810;8.818;2023-03-03T13:04:07;26.00;;;14.13;;
50547;SDS011;38013;48.810;8.818;2023-03-03T13:07:04;24.33;;;15.38;;
50547;SDS011;38013;48.810;8.818;2023-03-03T13:10:12;24.45;;;15.63;;
50547;SDS011;38013;48.810;8.818;2023-03-03T13:15:30;30.27;;;15.30;;
50547;SDS011;38013;48.810;8.818;2023-03-03T13:18:23;27.90;;;16.50;;
50547;SDS011;38013;48.810;8.818;2023-03-03T13:21:26;27.80;;;16.58;;
50547;SDS011;38013;48.810;8.818;2023-03-03T13:27:22;26.40;;;14.35;;
50547;SDS011;38013;48.810;8.818;2023-03-03T13:32:31;27.80;;;16.38;;
50547;SDS011;38013;48.810;8.818;2023-03-03T13:37:52;22.15;;;14.35;;
50547;SDS011;38013;48.810;8.818;2023-03-03T13:40:26;26.05;;;15.10;;
50547;SDS011;38013;48.810;8.818;2023-03-03T13:43:18;26.58;;;15.55;;
50547;SDS011;38013;48.810;8.818;2023-03-03T13:52:20;28.25;;;17.10;;
50547;SDS011;38013;48.810;8.818;2023-03-03T13:57:54;27.13;;;16.98;;
50547;SDS011;38013;48.810;8.818;2023-03-03T14:03:34;27.00;;;17.98;;
50547;SDS011;38013;48.810;8.818;2023-03-03T14:06:35;24.23;;;16.15;;
50547;SDS011;38013;48.810;8.818;2023-03-03T14:11:54;25.98;;;16.65;;
50547;SDS011;38013;48.810;8.818;2023-03-03T14:17:27;26.35;;;16.38;;
50547;SDS011;38013;48.810;8.818;2023-03-03T14:23:06;23.92;;;15.50;;
50547;SDS011;38013;48.810;8.818;2023-03-03T14:25:52;25.88;;;15.13;;
50547;SDS011;38013;48.810;8.818;2023-03-03T14:28:42;22.13;;;15.95;;
50547;SDS011;38013;48.810;8.818;2023-03-03T14:31:16;21.00;;;15.45;;
50547;SDS011;38013;48.810;8.818;2023-03-03T14:33:56;27.40;;;17.33;;
50547;SDS011;38013;48.810;8.818;2023-03-03T14:36:50;30.00;;;17.50;;
50547;SDS011;38013;48.810;8.818;2023-03-03T14:39:38;25.40;;;17.15;;
50547;SDS011;38013;48.810;8.818;2023-03-03T14:45:20;26.40;;;17.42;;
50547;SDS011;38013;48.810;8.818;2023-03-03T14:48:09;30.65;;;19.00;;
50547;SDS011;38013;48.810;8.818;2023-03-03T14:50:51;26.70;;;17.63;;
50547;SDS011;38013;48.810;8.818;2023-03-03T14:53:33;30.65;;;18.33;;
50547;SDS011;38013;48.810;8.818;2023-03-03T14:59:18;27.63;;;17.75;;
50547;SDS011;38013;48.810;8.818;2023-03-03T15:04:40;32.80;;;19.15;;
50547;SDS011;38013;48.810;8.818;2023-03-03T15:09:59;26.83;;;18.58;;
50547;SDS011;38013;48.810;8.818;2023-03-03T15:15:06;26.73;;;18.50;;
50547;SDS011;38013;48.810;8.818;2023-03-03T15:20:26;31.85;;;19.75;;
50547;SDS011;38013;48.810;8.818;2023-03-03T15:32:08;27.38;;;18.33;;
50547;SDS011;38013;48.810;8.818;2023-03-03T15:37:42;28.83;;;18.48;;
50547;SDS011;38013;48.810;8.818;2023-03-03T15:45:54;30.80;;;18.13;;
50547;SDS011;38013;48.810;8.818;2023-03-03T15:49:20;28.63;;;18.42;;
50547;SDS011;38013;48.810;8.818;2023-03-03T15:52:44;27.95;;;17.70;;
50547;SDS011;38013;48.810;8.818;2023-03-03T16:01:40;28.60;;;17.75;;
50547;SDS011;38013;48.810;8.818;2023-03-03T16:04:16;29.33;;;18.50;;
50547;SDS011;38013;48.810;8.818;2023-03-03T16:21:44;28.58;;;18.80;;
50547;SDS011;38013;48.810;8.818;2023-03-03T16:24:55;30.20;;;18.50;;
50547;SDS011;38013;48.810;8.818;2023-03-03T16:27:32;26.90;;;18.42;;
50547;SDS011;38013;48.810;8.818;2023-03-03T16:31:10;29.65;;;17.90;;
50547;SDS011;38013;48.810;8.818;2023-03-03T16:36:36;30.08;;;18.50;;
50547;SDS011;38013;48.810;8.818;2023-03-03T16:42:40;28.55;;;18.30;;
50547;SDS011;38013;48.810;8.818;2023-03-03T16:48:07;30.45;;;19.20;;
50547;SDS011;38013;48.810;8.818;2023-03-03T16:51:19;31.30;;;18.17;;
50547;SDS011;38013;48.810;8.818;2023-03-03T16:54:08;30.95;;;19.27;;
50547;SDS011;38013;48.810;8.818;2023-03-03T17:00:04;35.65;;;20.35;;
50547;SDS011;38013;48.810;8.818;2023-03-03T17:06:09;33.08;;;19.40;;
50547;SDS011;38013;48.810;8.818;2023-03-03T17:14:48;35.88;;;19.70;;
50547;SDS011;38013;48.810;8.818;2023-03-03T17:17:37;43.97;;;25.23;;
50547;SDS011;38013;48.810;8.818;2023-03-03T17:29:03;35.50;;;21.50;;
50547;SDS011;38013;48.810;8.818;2023-03-03T17:31:58;33.97;;;20.17;;
50547;SDS011;38013;48.810;8.818;2023-03-03T17:37:56;34.58;;;19.35;;
50547;SDS011;38013;48.810;8.818;2023-03-03T17:43:38;33.30;;;18.92;;
50547;SDS011;38013;48.810;8.818;2023-03-03T17:49:10;29.85;;;16.83;;
50547;SDS011;38013;48.810;8.818;2023-03-03T17:51:54;34.08;;;18.88;;
50547;SDS011;38013;48.810;8.818;2023-03-03T18:03:23;32.55;;;17.85;;
50547;SDS011;38013;48.810;8.818;2023-03-03T18:06:17;33.50;;;19.35;;
50547;SDS011;38013;48.810;8.818;2023-03-03T18:21:14;32.30;;;18.08;;
50547;SDS011;38013;48.810;8.818;2023-03-03T18:23:47;35.22;;;18.45;;
50547;SDS011;38013;48.810;8.818;2023-03-03T18:31:49;37.83;;;20.40;;
50547;SDS011;38013;48.810;8.818;2023-03-03T18:34:30;39.33;;;20.05;;
50547;SDS011;38013;48.810;8.818;2023-03-03T18:40:38;51.08;;;26.65;;
50547;SDS011;38013;48.810;8.818;2023-03-03T18:42:55;57.67;;;29.52;;
50547;SDS011;38013;48.810;8.818;2023-03-03T18:50:37;36.75;;;20.15;;
50547;SDS011;38013;48.810;8.818;2023-03-03T18:55:48;35.60;;;18.98;;
50547;SDS011;38013;48.810;8.818;2023-03-03T19:01:10;34.72;;;19.05;;
50547;SDS011;38013;48.810;8.818;2023-03-03T19:04:03;34.53;;;16.95;;
50547;SDS011;38013;48.810;8.818;2023-03-03T19:09:18;39.10;;;19.92;;
50547;SDS011;38013;48.810;8.818;2023-03-03T19:12:10;33.58;;;18.15;;
50547;SDS011;38013;48.810;8.818;2023-03-03T19:14:47;33.10;;;18.83;;
50547;SDS011;38013;48.810;8.818;2023-03-03T19:25:30;35.03;;;18.58;;
50547;SDS011;38013;48.810;8.818;2023-03-03T19:31:33;36.83;;;21.08;;
50547;SDS011;38013;48.810;8.818;2023-03-03T19:34:02;33.80;;;18.60;;
50547;SDS011;38013;48.810;8.818;2023-03-03T19:46:08;47.90;;;21.48;;
50547;SDS011;38013;48.810;8.818;2023-03-03T19:49:01;48.00;;;26.35;;
50547;SDS011;38013;48.810;8.818;2023-03-03T19:51:50;62.05;;;35.55;;
50547;SDS011;38013;48.810;8.818;2023-03-03T19:54:50;63.00;;;35.50;;
50547;SDS011;38013;48.810;8.818;2023-03-03T19:57:53;60.55;;;35.17;;
50547;SDS011;38013;48.810;8.818;2023-03-03T20:15:19;34.17;;;18.48;;
50547;SDS011;38013;48.810;8.818;2023-03-03T20:24:18;37.10;;;20.17;;
50547;SDS011;38013;48.810;8.818;2023-03-03T20:27:04;37.88;;;19.60;;
50547;SDS011;38013;48.810;8.818;2023-03-03T20:35:53;35.78;;;18.27;;
50547;SDS011;38013;48.810;8.818;2023-03-03T20:38:56;35.83;;;18.23;;
50547;SDS011;38013;48.810;8.818;2023-03-03T20:41:42;43.80;;;19.67;;
50547;SDS011;38013;48.810;8.818;2023-03-03T20:44:49;39.10;;;21.60;;
50547;SDS011;38013;48.810;8.818;2023-03-03T20:47:49;52.78;;;27.48;;
50547;SDS011;38013;48.810;8.818;2023-03-03T20:50:56;41.63;;;19.90;;
50547;SDS011;38013;48.810;8.818;2023-03-03T20:57:03;42.55;;;22.63;;
50547;SDS011;38013;48.810;8.818;2023-03-03T21:02:40;40.55;;;22.60;;
50547;SDS011;38013;48.810;8.818;2023-03-03T21:05:37;42.53;;;22.80;;
50547;SDS011;38013;48.810;8.818;2023-03-03T21:08:38;46.70;;;25.10;;
50547;SDS011;38013;48.810;8.818;2023-03-03T21:11:19;39.15;;;19.33;;
50547;SDS011;38013;48.810;8.818;2023-03-03T21:13:59;34.95;;;18.48;;
50547;SDS011;38013;48.810;8.818;2023-03-03T21:16:41;40.83;;;20.08;;
50547;SDS011;38013;48.810;8.818;2023-03-03T21:19:09;33.90;;;18.98;;
50547;SDS011;38013;48.810;8.818;2023-03-03T21:21:39;38.25;;;18.20;;
50547;SDS011;38013;48.810;8.818;2023-03-03T21:24:10;33.83;;;17.98;;
50547;SDS011;38013;48.810;8.818;2023-03-03T21:31:58;34.55;;;16.15;;
50547;SDS011;38013;48.810;8.818;2023-03-03T21:34:36;36.67;;;19.13;;
50547;SDS011;38013;48.810;8.818;2023-03-03T21:37:06;33.35;;;17.60;;
50547;SDS011;38013;48.810;8.818;2023-03-03T21:39:39;37.88;;;18.48;;